createdAt,value
2019-02-05T00:00:12.161Z,10.00
2019-02-05T00:02:39.118Z,10.60
2019-02-05T00:05:06.122Z,7.13
2019-02-05T00:07:33.092Z,7.40
2019-02-05T00:10:00.020Z,8.97
2019-02-05T00:12:26.989Z,7.43
2019-02-05T00:14:54.114Z,6.77
2019-02-05T00:17:21.082Z,6.50
2019-02-05T00:19:48.197Z,7.00
2019-02-05T00:22:15.154Z,5.67
2019-02-05T00:24:42.345Z,9.90
2019-02-05T00:27:09.297Z,7.37
2019-02-05T00:29:36.232Z,6.60
2019-02-05T00:32:03.308Z,8.43
2019-02-05T00:34:30.222Z,7.03
2019-02-05T00:36:57.154Z,6.60
2019-02-05T00:39:24.054Z,12.90
2019-02-05T00:41:51.371Z,7.57
2019-02-05T00:44:18.302Z,8.53
2019-02-05T00:46:45.238Z,7.23
2019-02-05T00:49:12.151Z,7.70
2019-02-05T00:51:39.086Z,8.53
2019-02-05T00:54:06.176Z,6.77
2019-02-05T00:56:33.118Z,7.83
2019-02-05T00:58:59.995Z,8.33
2019-02-05T01:01:27.107Z,11.30
2019-02-05T01:03:54.021Z,12.47
2019-02-05T01:06:20.918Z,8.20
2019-02-05T01:08:47.842Z,9.23
2019-02-05T01:11:14.724Z,9.77
2019-02-05T01:13:41.905Z,11.10
2019-02-05T01:16:08.808Z,9.70
2019-02-05T01:18:36.129Z,7.40
2019-02-05T01:21:03.451Z,9.90
2019-02-05T01:23:30.430Z,9.57
2019-02-05T01:25:57.306Z,10.53
2019-02-05T01:28:24.248Z,11.90
2019-02-05T01:30:51.230Z,12.20
2019-02-05T01:33:18.153Z,12.57
2019-02-05T01:35:45.354Z,11.83
2019-02-05T01:38:12.336Z,12.13
2019-02-05T01:40:39.323Z,11.33
2019-02-05T01:43:06.275Z,15.90
2019-02-05T01:45:33.166Z,12.73
2019-02-05T01:48:00.103Z,10.20
2019-02-05T01:50:27.765Z,11.10
2019-02-05T01:52:54.710Z,13.77
2019-02-05T01:55:22.091Z,11.77
2019-02-05T01:57:49.032Z,11.97
2019-02-05T02:00:18.597Z,15.23
2019-02-05T02:02:45.635Z,13.83
2019-02-05T02:05:12.942Z,12.50
2019-02-05T02:07:39.829Z,13.13
2019-02-05T02:10:08.343Z,15.53
2019-02-05T02:12:35.427Z,14.17
2019-02-05T02:15:03.609Z,11.77
2019-02-05T02:17:30.647Z,12.63
2019-02-05T02:19:57.567Z,15.47
2019-02-05T02:22:24.470Z,15.17
2019-02-05T02:24:51.430Z,17.00
2019-02-05T02:27:18.376Z,15.93
2019-02-05T02:29:45.757Z,14.57
2019-02-05T02:32:12.664Z,16.67
2019-02-05T02:34:39.634Z,11.90
2019-02-05T02:37:06.532Z,19.80
2019-02-05T02:39:33.463Z,17.07
2019-02-05T02:42:00.351Z,15.47
2019-02-05T02:44:27.267Z,14.80
2019-02-05T02:46:54.210Z,13.53
2019-02-05T02:49:21.451Z,13.63
2019-02-05T02:51:48.335Z,16.60
2019-02-05T02:54:15.268Z,15.40
2019-02-05T02:56:42.160Z,14.67
2019-02-05T02:59:09.099Z,13.20
2019-02-05T03:01:36.074Z,15.27
2019-02-05T03:04:03.181Z,14.70
2019-02-05T03:06:30.069Z,15.70
2019-02-05T03:08:57.247Z,14.40
2019-02-05T03:11:24.168Z,13.30
2019-02-05T03:13:51.143Z,16.80
2019-02-05T03:16:18.030Z,13.43
2019-02-05T03:18:45.048Z,17.13
2019-02-05T03:21:11.942Z,15.93
2019-02-05T03:23:38.867Z,15.50
2019-02-05T03:26:05.756Z,15.90
2019-02-05T03:28:32.673Z,16.80
2019-02-05T03:31:00.089Z,15.00
2019-02-05T03:33:27.045Z,18.77
2019-02-05T03:35:53.920Z,18.53
2019-02-05T03:38:20.822Z,16.47
2019-02-05T03:41:07.872Z,14.83
2019-02-05T03:43:39.450Z,15.60
2019-02-05T03:46:29.279Z,14.63
2019-02-05T03:48:56.876Z,14.67
2019-02-05T03:51:43.831Z,14.90
2019-02-05T03:54:27.116Z,17.67
2019-02-05T03:57:09.265Z,13.10
2019-02-05T03:59:55.111Z,17.83
2019-02-05T04:02:53.201Z,15.33
2019-02-05T04:05:42.345Z,16.43
2019-02-05T04:08:53.954Z,18.80
2019-02-05T04:11:47.525Z,14.57
2019-02-05T04:14:44.173Z,17.13
2019-02-05T04:18:03.683Z,17.13
2019-02-05T04:21:08.494Z,17.93
2019-02-05T04:24:12.040Z,15.50
2019-02-05T04:27:04.423Z,21.00
2019-02-05T04:29:51.834Z,17.50
2019-02-05T04:32:59.462Z,18.07
2019-02-05T04:36:08.660Z,15.07
2019-02-05T04:39:13.259Z,16.40
2019-02-05T04:42:27.777Z,19.10
2019-02-05T04:45:16.810Z,22.00
2019-02-05T04:48:01.327Z,18.87
2019-02-05T04:50:51.591Z,21.07
2019-02-05T04:53:42.495Z,17.43
2019-02-05T04:56:38.318Z,19.83
2019-02-05T04:59:47.467Z,20.13
2019-02-05T05:03:12.626Z,23.30
2019-02-05T05:06:33.674Z,19.27
2019-02-05T05:09:34.069Z,23.33
2019-02-05T05:12:01.031Z,20.87
2019-02-05T05:14:27.941Z,29.00
2019-02-05T05:16:54.935Z,22.53
2019-02-05T05:19:22.123Z,27.90
2019-02-05T05:21:49.642Z,21.60
2019-02-05T05:24:17.044Z,26.00
2019-02-05T05:26:44.117Z,30.57
2019-02-05T05:29:11.013Z,27.33
2019-02-05T05:31:37.936Z,28.17
2019-02-05T05:34:04.827Z,23.83
2019-02-05T05:36:31.773Z,29.03
2019-02-05T05:38:58.999Z,29.20
2019-02-05T05:41:26.003Z,25.43
2019-02-05T05:43:52.883Z,33.30
2019-02-05T05:46:19.876Z,35.23
2019-02-05T05:48:46.877Z,27.93
2019-02-05T05:51:13.801Z,27.93
2019-02-05T05:53:40.808Z,31.03
2019-02-05T05:56:07.907Z,43.03
2019-02-05T05:58:35.153Z,38.40
2019-02-05T06:01:02.198Z,38.93
2019-02-05T06:03:29.060Z,37.77
2019-02-05T06:05:55.969Z,34.27
2019-02-05T06:08:23.225Z,35.33
2019-02-05T06:10:50.127Z,39.70
2019-02-05T06:13:17.050Z,34.27
2019-02-05T06:15:44.010Z,37.90
2019-02-05T06:18:11.463Z,35.60
2019-02-05T06:20:38.399Z,33.77
2019-02-05T06:23:05.374Z,44.40
2019-02-05T06:25:32.247Z,32.40
2019-02-05T06:27:59.156Z,40.10
2019-02-05T06:30:26.076Z,43.07
2019-02-05T06:32:53.022Z,38.87
2019-02-05T06:35:19.908Z,46.07
2019-02-05T06:37:46.884Z,43.07
2019-02-05T06:40:16.670Z,35.87
2019-02-05T06:42:43.768Z,41.20
2019-02-05T06:45:12.058Z,47.03
2019-02-05T06:47:38.996Z,36.60
2019-02-05T06:50:06.924Z,37.20
2019-02-05T06:52:33.907Z,41.47
2019-02-05T06:55:00.804Z,50.97
2019-02-05T06:57:28.024Z,45.17
2019-02-05T06:59:54.885Z,45.53
2019-02-05T07:02:21.791Z,43.47
2019-02-05T07:04:48.670Z,44.40
2019-02-05T07:07:15.611Z,43.43
2019-02-05T07:09:42.490Z,42.53
2019-02-05T07:12:09.478Z,49.77
2019-02-05T07:14:36.419Z,43.63
2019-02-05T07:17:04.184Z,40.63
2019-02-05T07:19:31.090Z,57.23
2019-02-05T07:21:58.012Z,50.90
2019-02-05T07:24:25.566Z,54.23
2019-02-05T07:26:52.510Z,52.90
2019-02-05T07:29:19.391Z,51.57
2019-02-05T07:31:46.300Z,60.00
2019-02-05T07:34:13.237Z,62.40
2019-02-05T07:36:40.400Z,48.30
2019-02-05T07:39:08.184Z,58.33
2019-02-05T07:41:36.044Z,59.27
2019-02-05T07:44:02.993Z,61.70
2019-02-05T07:46:29.911Z,68.63
2019-02-05T07:48:56.839Z,53.23
2019-02-05T07:51:23.749Z,69.33
2019-02-05T07:53:50.869Z,70.23
2019-02-05T07:56:17.898Z,79.20
2019-02-05T07:58:44.858Z,60.90
2019-02-05T08:01:12.146Z,53.87
2019-02-05T08:03:40.831Z,64.90
2019-02-05T08:06:08.358Z,65.30
2019-02-05T08:08:35.907Z,72.87
2019-02-05T08:11:04.973Z,67.27
2019-02-05T08:13:31.997Z,70.70
2019-02-05T08:15:58.901Z,70.87
2019-02-05T08:18:25.838Z,66.97
2019-02-05T08:20:52.843Z,69.77
2019-02-05T08:23:20.231Z,64.17
2019-02-05T08:25:47.122Z,63.37
2019-02-05T08:28:14.201Z,77.33
2019-02-05T08:30:43.741Z,64.40
2019-02-05T08:33:10.746Z,67.47
2019-02-05T08:35:37.662Z,67.57
2019-02-05T08:38:04.719Z,74.87
2019-02-05T08:40:31.651Z,59.43
2019-02-05T08:42:58.538Z,74.83
2019-02-05T08:45:27.340Z,62.97
2019-02-05T08:47:54.272Z,76.80
2019-02-05T08:50:22.957Z,71.63
2019-02-05T08:52:50.030Z,68.23
2019-02-05T08:55:17.934Z,65.17
2019-02-05T08:57:45.124Z,68.03
2019-02-05T09:00:20.998Z,64.10
2019-02-05T09:02:48.500Z,56.43
2019-02-05T09:05:15.944Z,64.57
2019-02-05T09:07:42.846Z,64.50
2019-02-05T09:10:12.455Z,79.87
2019-02-05T09:12:39.470Z,65.07
2019-02-05T09:15:08.623Z,80.73
2019-02-05T09:17:35.528Z,61.20
2019-02-05T09:20:03.670Z,73.27
2019-02-05T09:22:30.561Z,71.43
2019-02-05T09:24:57.506Z,74.77
2019-02-05T09:27:24.514Z,80.10
2019-02-05T09:29:51.576Z,72.57
2019-02-05T09:32:19.190Z,66.67
2019-02-05T09:34:46.141Z,65.70
2019-02-05T09:37:13.259Z,79.07
2019-02-05T09:39:40.186Z,70.77
2019-02-05T09:42:07.335Z,84.40
2019-02-05T09:44:34.304Z,84.77
2019-02-05T09:47:01.275Z,94.30
2019-02-05T09:49:28.204Z,85.03
2019-02-05T09:51:55.110Z,81.27
2019-02-05T09:54:22.129Z,83.97
2019-02-05T09:56:49.112Z,83.40
2019-02-05T09:59:16.041Z,86.47
2019-02-05T10:01:43.602Z,90.47
2019-02-05T10:04:10.528Z,86.37
2019-02-05T10:06:37.544Z,91.80
2019-02-05T10:09:07.040Z,94.93
2019-02-05T10:11:34.442Z,89.77
2019-02-05T10:14:01.850Z,101.60
2019-02-05T10:16:28.786Z,91.10
2019-02-05T10:18:55.755Z,97.37
2019-02-05T10:21:22.883Z,83.13
2019-02-05T10:23:49.959Z,97.27
2019-02-05T10:26:17.013Z,86.50
2019-02-05T10:28:43.899Z,96.20
2019-02-05T10:31:10.900Z,86.97
2019-02-05T10:33:37.876Z,94.83
2019-02-05T10:36:05.143Z,79.07
2019-02-05T10:38:32.287Z,90.90
2019-02-05T10:40:59.332Z,98.57
2019-02-05T10:43:26.435Z,74.47
2019-02-05T10:45:53.385Z,88.00
2019-02-05T10:48:20.345Z,88.93
2019-02-05T10:50:47.598Z,83.73
2019-02-05T10:53:14.519Z,72.50
2019-02-05T10:55:41.425Z,69.27
2019-02-05T10:58:08.643Z,76.47
2019-02-05T11:00:35.583Z,68.07
2019-02-05T11:03:04.852Z,63.50
2019-02-05T11:05:32.854Z,60.70
2019-02-05T11:07:59.898Z,62.00
2019-02-05T11:10:26.942Z,58.77
2019-02-05T11:12:53.990Z,61.93
2019-02-05T11:15:30.920Z,51.50
2019-02-05T11:17:58.299Z,52.10
2019-02-05T11:20:26.343Z,44.20
2019-02-05T11:22:53.334Z,44.60
2019-02-05T11:25:20.310Z,38.20
2019-02-05T11:27:47.243Z,42.03
2019-02-05T11:30:22.234Z,41.73
2019-02-05T11:32:49.302Z,38.90
2019-02-05T11:35:16.302Z,33.00
2019-02-05T11:37:43.289Z,33.10
2019-02-05T11:40:13.637Z,38.33
2019-02-05T11:42:40.585Z,29.83
2019-02-05T11:45:09.457Z,30.83
2019-02-05T11:47:36.472Z,28.70
2019-02-05T11:50:05.052Z,28.27
2019-02-05T11:52:32.028Z,28.57
2019-02-05T11:54:59.060Z,27.07
2019-02-05T11:57:26.279Z,29.67
2019-02-05T11:59:53.245Z,27.13
2019-02-05T12:02:20.219Z,26.87
2019-02-05T12:04:47.372Z,29.77
2019-02-05T12:07:14.385Z,27.33
2019-02-05T12:09:41.642Z,28.53
2019-02-05T12:12:08.601Z,21.43
2019-02-05T12:14:35.545Z,23.67
2019-02-05T12:17:02.553Z,24.60
2019-02-05T12:19:29.965Z,22.23
2019-02-05T12:21:57.157Z,30.40
2019-02-05T12:24:24.202Z,29.00
2019-02-05T12:26:51.111Z,27.33
2019-02-05T12:29:18.127Z,30.60
2019-02-05T12:31:45.073Z,27.63
2019-02-05T12:34:12.332Z,31.07
2019-02-05T12:36:41.203Z,31.90
2019-02-05T12:39:17.070Z,29.40
2019-02-05T12:41:44.628Z,32.40
2019-02-05T12:44:11.582Z,29.80
2019-02-05T12:46:38.609Z,36.10
2019-02-05T12:49:05.596Z,30.00
2019-02-05T12:51:32.489Z,30.50
2019-02-05T12:53:59.458Z,27.30
2019-02-05T12:56:26.413Z,33.23
2019-02-05T12:58:53.372Z,24.43
2019-02-05T13:01:20.536Z,28.83
2019-02-05T13:03:47.460Z,24.17
2019-02-05T13:06:14.923Z,28.30
2019-02-05T13:08:41.959Z,29.10
2019-02-05T13:11:08.963Z,29.33
2019-02-05T13:13:36.054Z,25.67
2019-02-05T13:16:03.280Z,25.00
2019-02-05T13:18:30.491Z,27.53
2019-02-05T13:20:57.407Z,26.57
2019-02-05T13:23:24.751Z,24.87
2019-02-05T13:25:53.132Z,26.80
2019-02-05T13:28:20.308Z,27.93
2019-02-05T13:30:47.217Z,33.90
2019-02-05T13:33:15.827Z,28.43
2019-02-05T13:35:43.144Z,30.90
2019-02-05T13:38:10.138Z,30.87
2019-02-05T13:40:37.359Z,35.07
2019-02-05T13:43:05.308Z,30.23
2019-02-05T13:45:33.316Z,34.03
2019-02-05T13:48:00.759Z,27.20
2019-02-05T13:50:33.051Z,25.10
2019-02-05T13:52:58.901Z,30.67
2019-02-05T13:55:31.381Z,36.60
2019-02-05T13:57:58.507Z,27.07
2019-02-05T14:00:33.787Z,31.17
2019-02-05T14:03:00.687Z,25.33
2019-02-05T14:05:28.333Z,26.50
2019-02-05T14:07:59.535Z,27.87
2019-02-05T14:10:29.759Z,31.50
2019-02-05T14:12:57.582Z,22.83
2019-02-05T14:15:27.375Z,26.77
2019-02-05T14:17:54.572Z,28.07
2019-02-05T14:20:22.108Z,29.87
2019-02-05T14:22:49.041Z,30.83
2019-02-05T14:25:16.030Z,32.20
2019-02-05T14:27:43.106Z,32.10
2019-02-05T14:30:22.674Z,26.00
2019-02-05T14:32:49.873Z,28.97
2019-02-05T14:35:17.369Z,31.07
2019-02-05T14:37:44.302Z,31.67
2019-02-05T14:40:13.495Z,25.10
2019-02-05T14:42:40.647Z,34.40
2019-02-05T14:45:09.019Z,31.13
2019-02-05T14:47:36.007Z,29.20
2019-02-05T14:50:05.246Z,30.10
2019-02-05T14:52:32.708Z,35.00
2019-02-05T14:55:00.361Z,26.77
2019-02-05T14:57:27.417Z,33.50
2019-02-05T14:59:55.960Z,28.87
2019-02-05T15:02:22.932Z,33.33
2019-02-05T15:04:49.896Z,26.23
2019-02-05T15:07:17.091Z,28.13
2019-02-05T15:09:46.297Z,31.10
2019-02-05T15:12:13.208Z,36.80
2019-02-05T15:14:40.215Z,27.03
2019-02-05T15:17:07.233Z,28.67
2019-02-05T15:19:34.236Z,27.90
2019-02-05T15:22:01.275Z,28.37
2019-02-05T15:24:37.215Z,30.13
2019-02-05T15:26:57.002Z,24.57
2019-02-05T15:29:23.912Z,35.17
2019-02-05T15:31:54.536Z,29.43
2019-02-05T15:34:22.722Z,30.63
2019-02-05T15:36:50.505Z,27.73
2019-02-05T15:39:17.462Z,31.50
2019-02-05T15:41:44.468Z,30.27
2019-02-05T15:44:11.714Z,33.97
2019-02-05T15:46:38.685Z,31.10
2019-02-05T15:49:05.580Z,26.77
2019-02-05T15:51:32.569Z,28.40
2019-02-05T15:53:59.503Z,33.37
2019-02-05T15:56:26.469Z,29.27
2019-02-05T15:58:53.393Z,35.20
2019-02-05T16:01:20.445Z,29.90
2019-02-05T16:03:47.410Z,29.80
2019-02-05T16:06:14.395Z,34.33
2019-02-05T16:08:41.316Z,33.13
2019-02-05T16:11:08.296Z,31.30
2019-02-05T16:13:35.214Z,33.07
2019-02-05T16:16:02.185Z,32.63
2019-02-05T16:18:29.113Z,30.47
2019-02-05T16:20:56.471Z,33.87
2019-02-05T16:23:23.370Z,37.50
2019-02-05T16:25:50.325Z,34.80
2019-02-05T16:28:17.258Z,35.23
2019-02-05T16:30:44.298Z,33.87
2019-02-05T16:33:11.317Z,37.90
2019-02-05T16:35:38.268Z,37.80
2019-02-05T16:38:05.270Z,33.63
2019-02-05T16:40:32.815Z,37.77
2019-02-05T16:42:59.733Z,41.77
2019-02-05T16:45:27.110Z,33.07
2019-02-05T16:47:55.036Z,38.13
2019-02-05T16:50:24.475Z,38.73
2019-02-05T16:52:52.134Z,40.90
2019-02-05T16:55:19.055Z,36.70
2019-02-05T16:57:46.609Z,37.17
2019-02-05T17:00:19.900Z,45.13
2019-02-05T17:02:46.831Z,41.93
2019-02-05T17:05:14.301Z,38.30
2019-02-05T17:07:41.244Z,38.00
2019-02-05T17:10:09.638Z,46.40
2019-02-05T17:12:36.595Z,50.00
2019-02-05T17:15:05.655Z,43.57
2019-02-05T17:17:32.625Z,49.90
2019-02-05T17:19:59.543Z,57.03
2019-02-05T17:22:26.512Z,52.83
2019-02-05T17:24:53.428Z,48.07
2019-02-05T17:27:20.414Z,46.60
2019-02-05T17:29:50.086Z,42.67
2019-02-05T17:32:16.188Z,58.20
2019-02-05T17:34:43.120Z,37.57
2019-02-05T17:37:10.069Z,36.97
2019-02-05T17:39:37.016Z,38.57
2019-02-05T17:42:04.072Z,43.07
2019-02-05T17:44:31.029Z,45.00
2019-02-05T17:46:58.092Z,43.23
2019-02-05T17:49:24.968Z,46.53
2019-02-05T17:51:52.106Z,44.83
2019-02-05T17:54:19.013Z,52.13
2019-02-05T17:56:45.929Z,49.13
2019-02-05T17:59:12.808Z,55.43
2019-02-05T18:01:39.757Z,53.67
2019-02-05T18:04:06.668Z,50.10
2019-02-05T18:06:33.592Z,55.00
2019-02-05T18:09:00.905Z,53.00
2019-02-05T18:11:27.864Z,51.00
2019-02-05T18:13:54.788Z,45.47
2019-02-05T18:16:21.730Z,53.27
2019-02-05T18:18:48.647Z,45.43
2019-02-05T18:21:15.660Z,46.13
2019-02-05T18:23:42.593Z,47.37
2019-02-05T18:26:09.529Z,52.87
2019-02-05T18:28:36.783Z,51.23
2019-02-05T18:31:03.757Z,53.83
2019-02-05T18:33:30.694Z,54.80
2019-02-05T18:35:57.587Z,50.57
2019-02-05T18:38:24.697Z,47.50
2019-02-05T18:40:51.751Z,50.37
2019-02-05T18:43:18.716Z,46.67
2019-02-05T18:45:45.635Z,48.13
2019-02-05T18:48:12.598Z,53.57
2019-02-05T18:50:39.806Z,50.37
2019-02-05T18:53:06.747Z,49.20
2019-02-05T18:55:34.069Z,46.67
2019-02-05T18:58:08.900Z,58.63
2019-02-05T19:00:32.156Z,50.30
2019-02-05T19:02:59.394Z,56.10
2019-02-05T19:05:26.822Z,51.37
2019-02-05T19:07:53.905Z,54.03
2019-02-05T19:10:22.835Z,51.10
2019-02-05T19:12:49.805Z,54.47
2019-02-05T19:15:22.140Z,62.23
2019-02-05T19:17:49.113Z,55.67
2019-02-05T19:20:16.250Z,61.90
2019-02-05T19:22:43.223Z,62.10
2019-02-05T19:25:18.048Z,73.30
2019-02-05T19:27:45.006Z,69.07
2019-02-05T19:30:12.310Z,58.07
2019-02-05T19:32:39.281Z,58.10
2019-02-05T19:35:07.212Z,58.27
2019-02-05T19:37:34.637Z,63.60
2019-02-05T19:40:01.565Z,60.97
2019-02-05T19:42:28.528Z,62.70
2019-02-05T19:45:07.771Z,56.57
2019-02-05T19:47:34.883Z,68.63
2019-02-05T19:50:02.514Z,64.30
2019-02-05T19:52:29.726Z,56.90
2019-02-05T19:54:56.731Z,53.80
2019-02-05T19:57:23.655Z,54.03
2019-02-05T19:59:50.949Z,54.63
2019-02-05T20:02:17.891Z,48.73
2019-02-05T20:04:44.863Z,53.83
2019-02-05T20:07:11.843Z,55.03
2019-02-05T20:09:39.007Z,59.03
2019-02-05T20:12:06.370Z,47.87
2019-02-05T20:14:33.362Z,50.93
2019-02-05T20:17:01.057Z,51.87
2019-02-05T20:19:28.013Z,43.40
2019-02-05T20:21:54.942Z,44.87
2019-02-05T20:24:21.977Z,51.23
2019-02-05T20:26:48.880Z,45.53
2019-02-05T20:29:15.831Z,39.87
2019-02-05T20:31:42.727Z,46.20
2019-02-05T20:34:10.152Z,46.90
2019-02-05T20:36:37.439Z,45.00
2019-02-05T20:39:11.131Z,43.07
2019-02-05T20:41:38.143Z,46.70
2019-02-05T20:44:05.055Z,48.90
2019-02-05T20:46:31.928Z,45.90
2019-02-05T20:48:58.919Z,44.90
2019-02-05T20:51:25.815Z,44.17
2019-02-05T20:53:52.761Z,48.50
2019-02-05T20:56:20.082Z,46.40
2019-02-05T20:58:47.039Z,53.33
2019-02-05T21:01:13.936Z,42.10
2019-02-05T21:03:40.923Z,46.23
2019-02-05T21:06:07.852Z,50.73
2019-02-05T21:08:34.882Z,44.43
2019-02-05T21:11:01.798Z,51.33
2019-02-05T21:13:28.733Z,46.63
2019-02-05T21:15:55.706Z,49.40
2019-02-05T21:18:22.936Z,46.73
2019-02-05T21:20:49.854Z,48.67
2019-02-05T21:23:16.780Z,45.00
2019-02-05T21:25:43.711Z,49.00
2019-02-05T21:28:10.657Z,46.63
2019-02-05T21:30:37.600Z,48.20
2019-02-05T21:33:04.514Z,42.03
2019-02-05T21:35:31.440Z,46.30
2019-02-05T21:37:58.683Z,51.37
2019-02-05T21:40:25.699Z,46.20
2019-02-05T21:42:52.622Z,41.73
2019-02-05T21:45:20.671Z,41.37
2019-02-05T21:47:47.617Z,40.93
2019-02-05T21:50:16.654Z,39.93
2019-02-05T21:52:43.762Z,40.83
2019-02-05T21:55:11.509Z,31.43
2019-02-05T21:57:38.597Z,34.23
2019-02-05T22:00:15.544Z,32.57
2019-02-05T22:02:42.586Z,31.47
2019-02-05T22:05:09.538Z,27.23
2019-02-05T22:07:36.425Z,32.20
2019-02-05T22:10:04.713Z,25.83
2019-02-05T22:12:31.571Z,30.10
2019-02-05T22:14:58.525Z,30.90
2019-02-05T22:17:25.642Z,35.30
2019-02-05T22:19:52.603Z,27.70
2019-02-05T22:22:19.488Z,28.03
2019-02-05T22:24:46.425Z,26.33
2019-02-05T22:27:13.540Z,24.53
2019-02-05T22:29:40.468Z,29.83
2019-02-05T22:32:07.382Z,30.80
2019-02-05T22:34:39.323Z,30.03
2019-02-05T22:37:03.731Z,28.67
2019-02-05T22:39:31.126Z,24.33
2019-02-05T22:41:58.025Z,30.80
2019-02-05T22:44:24.934Z,26.83
2019-02-05T22:46:52.155Z,28.30
2019-02-05T22:49:19.074Z,29.27
2019-02-05T22:51:46.498Z,29.80
2019-02-05T22:54:13.405Z,30.10
2019-02-05T22:56:40.331Z,31.17
2019-02-05T22:59:07.638Z,26.70
2019-02-05T23:01:58.174Z,31.50
2019-02-05T23:05:07.704Z,28.27
2019-02-05T23:07:34.771Z,26.30
2019-02-05T23:10:25.704Z,29.97
2019-02-05T23:12:58.645Z,25.60
2019-02-05T23:15:28.963Z,31.90
2019-02-05T23:17:55.214Z,28.17
2019-02-05T23:20:22.825Z,26.53
2019-02-05T23:22:50.111Z,31.83
2019-02-05T23:25:17.052Z,31.17
2019-02-05T23:27:43.935Z,33.43
2019-02-05T23:30:14.313Z,30.00
2019-02-05T23:32:41.240Z,29.17
2019-02-05T23:35:08.531Z,26.00
2019-02-05T23:37:35.444Z,31.73
2019-02-05T23:40:04.446Z,26.30
2019-02-05T23:42:31.409Z,33.17
2019-02-05T23:44:58.309Z,26.07
2019-02-05T23:47:25.249Z,33.77
2019-02-05T23:49:52.153Z,35.13
2019-02-05T23:52:19.071Z,31.37
2019-02-05T23:54:45.990Z,35.30
2019-02-05T23:57:13.018Z,33.40
2019-02-05T23:59:40.260Z,36.90
